sensor_id;sensor_type;location;lat;lon;timestamp;P1;durP1;ratioP1;P2;durP2;ratioP2
74914;SDS011;63475;45.140;-75.616;2022-09-30T00:00:15;5.03;;;2.08;;
74914;SDS011;63475;45.140;-75.616;2022-09-30T00:01:16;5.05;;;2.53;;
74914;SDS011;63475;45.140;-75.616;2022-09-30T00:02:18;4.82;;;2.05;;
74914;SDS011;63475;45.140;-75.616;2022-09-30T00:03:19;4.22;;;2.00;;
74914;SDS011;63475;45.140;-75.616;2022-09-30T00:04:22;4.82;;;3.25;;
74914;SDS011;63475;45.140;-75.616;2022-09-30T00:05:24;5.32;;;2.70;;
74914;SDS011;63475;45.140;-75.616;2022-09-30T00:06:26;5.90;;;3.00;;
74914;SDS011;63475;45.140;-75.616;2022-09-30T00:07:28;5.13;;;2.63;;
74914;SDS011;63475;45.140;-75.616;2022-09-30T00:08:30;4.70;;;2.28;;
74914;SDS011;63475;45.140;-75.616;2022-09-30T00:09:31;4.50;;;1.80;;
74914;SDS011;63475;45.140;-75.616;2022-09-30T00:10:32;4.07;;;1.52;;
74914;SDS011;63475;45.140;-75.616;2022-09-30T00:11:34;4.82;;;2.55;;
74914;SDS011;63475;45.140;-75.616;2022-09-30T00:12:35;6.20;;;2.28;;
74914;SDS011;63475;45.140;-75.616;2022-09-30T00:13:37;4.75;;;1.85;;
74914;SDS011;63475;45.140;-75.616;2022-09-30T00:14:39;5.20;;;2.10;;
74914;SDS011;63475;45.140;-75.616;2022-09-30T00:15:45;6.28;;;1.92;;
74914;SDS011;63475;45.140;-75.616;2022-09-30T00:16:46;6.05;;;2.85;;
74914;SDS011;63475;45.140;-75.616;2022-09-30T00:17:48;5.10;;;1.95;;
74914;SDS011;63475;45.140;-75.616;2022-09-30T00:18:49;4.72;;;2.20;;
74914;SDS011;63475;45.140;-75.616;2022-09-30T00:19:50;6.10;;;2.22;;
74914;SDS011;63475;45.140;-75.616;2022-09-30T00:20:51;6.28;;;2.45;;
74914;SDS011;63475;45.140;-75.616;2022-09-30T00:21:52;5.25;;;1.02;;
74914;SDS011;63475;45.140;-75.616;2022-09-30T00:22:53;5.45;;;2.22;;
74914;SDS011;63475;45.140;-75.616;2022-09-30T00:23:54;6.68;;;2.67;;
74914;SDS011;63475;45.140;-75.616;2022-09-30T00:24:56;3.90;;;1.35;;
74914;SDS011;63475;45.140;-75.616;2022-09-30T00:25:58;3.97;;;1.42;;
74914;SDS011;63475;45.140;-75.616;2022-09-30T00:27:03;4.82;;;1.90;;
74914;SDS011;63475;45.140;-75.616;2022-09-30T00:28:04;3.95;;;2.45;;
74914;SDS011;63475;45.140;-75.616;2022-09-30T00:29:08;4.47;;;1.65;;
74914;SDS011;63475;45.140;-75.616;2022-09-30T00:30:09;3.95;;;2.00;;
74914;SDS011;63475;45.140;-75.616;2022-09-30T00:31:12;2.88;;;1.30;;
74914;SDS011;63475;45.140;-75.616;2022-09-30T00:32:15;4.57;;;1.30;;
74914;SDS011;63475;45.140;-75.616;2022-09-30T00:33:16;3.55;;;1.25;;
74914;SDS011;63475;45.140;-75.616;2022-09-30T00:34:17;2.22;;;0.40;;
74914;SDS011;63475;45.140;-75.616;2022-09-30T00:35:18;4.07;;;1.55;;
74914;SDS011;63475;45.140;-75.616;2022-09-30T00:36:21;3.50;;;1.20;;
74914;SDS011;63475;45.140;-75.616;2022-09-30T00:37:22;4.28;;;1.42;;
74914;SDS011;63475;45.140;-75.616;2022-09-30T00:38:23;4.05;;;1.55;;
74914;SDS011;63475;45.140;-75.616;2022-09-30T00:39:25;4.35;;;1.67;;
74914;SDS011;63475;45.140;-75.616;2022-09-30T00:40:28;5.03;;;1.52;;
74914;SDS011;63475;45.140;-75.616;2022-09-30T00:41:29;4.93;;;1.52;;
74914;SDS011;63475;45.140;-75.616;2022-09-30T00:42:30;6.90;;;2.55;;
74914;SDS011;63475;45.140;-75.616;2022-09-30T00:43:39;8.13;;;2.42;;
74914;SDS011;63475;45.140;-75.616;2022-09-30T00:44:53;4.90;;;2.30;;
74914;SDS011;63475;45.140;-75.616;2022-09-30T00:48:02;6.22;;;2.15;;
74914;SDS011;63475;45.140;-75.616;2022-09-30T00:49:15;5.88;;;1.90;;
74914;SDS011;63475;45.140;-75.616;2022-09-30T00:51:30;4.10;;;1.58;;
74914;SDS011;63475;45.140;-75.616;2022-09-30T00:52:34;4.57;;;1.70;;
74914;SDS011;63475;45.140;-75.616;2022-09-30T00:53:38;4.15;;;1.90;;
74914;SDS011;63475;45.140;-75.616;2022-09-30T00:54:51;4.13;;;1.83;;
74914;SDS011;63475;45.140;-75.616;2022-09-30T00:57:00;5.00;;;1.48;;
74914;SDS011;63475;45.140;-75.616;2022-09-30T00:58:03;5.68;;;2.42;;
74914;SDS011;63475;45.140;-75.616;2022-09-30T00:59:09;3.63;;;1.58;;
74914;SDS011;63475;45.140;-75.616;2022-09-30T01:00:12;4.90;;;2.40;;
74914;SDS011;63475;45.140;-75.616;2022-09-30T01:01:13;5.25;;;1.98;;
74914;SDS011;63475;45.140;-75.616;2022-09-30T01:02:14;4.32;;;1.77;;
74914;SDS011;63475;45.140;-75.616;2022-09-30T01:03:15;5.30;;;2.55;;
74914;SDS011;63475;45.140;-75.616;2022-09-30T01:04:18;6.28;;;1.65;;
74914;SDS011;63475;45.140;-75.616;2022-09-30T01:05:22;4.15;;;1.33;;
74914;SDS011;63475;45.140;-75.616;2022-09-30T01:07:26;5.35;;;0.68;;
74914;SDS011;63475;45.140;-75.616;2022-09-30T01:08:29;5.90;;;1.75;;
74914;SDS011;63475;45.140;-75.616;2022-09-30T01:09:35;3.70;;;1.15;;
74914;SDS011;63475;45.140;-75.616;2022-09-30T01:10:38;2.92;;;1.15;;
74914;SDS011;63475;45.140;-75.616;2022-09-30T01:11:39;3.67;;;1.23;;
74914;SDS011;63475;45.140;-75.616;2022-09-30T01:12:40;2.85;;;1.33;;
74914;SDS011;63475;45.140;-75.616;2022-09-30T01:13:41;4.57;;;1.52;;
74914;SDS011;63475;45.140;-75.616;2022-09-30T01:14:47;2.65;;;1.10;;
74914;SDS011;63475;45.140;-75.616;2022-09-30T01:17:33;5.07;;;1.42;;
74914;SDS011;63475;45.140;-75.616;2022-09-30T01:26:09;5.18;;;1.50;;
74914;SDS011;63475;45.140;-75.616;2022-09-30T01:31:21;7.25;;;2.80;;
74914;SDS011;63475;45.140;-75.616;2022-09-30T01:36:26;5.88;;;2.08;;
74914;SDS011;63475;45.140;-75.616;2022-09-30T01:37:53;6.10;;;1.90;;
74914;SDS011;63475;45.140;-75.616;2022-09-30T01:43:11;7.25;;;1.90;;
74914;SDS011;63475;45.140;-75.616;2022-09-30T01:44:45;7.00;;;1.88;;
74914;SDS011;63475;45.140;-75.616;2022-09-30T01:46:17;5.30;;;1.60;;
74914;SDS011;63475;45.140;-75.616;2022-09-30T01:47:41;9.00;;;1.70;;
74914;SDS011;63475;45.140;-75.616;2022-09-30T01:50:00;6.07;;;1.98;;
74914;SDS011;63475;45.140;-75.616;2022-09-30T01:51:16;5.60;;;2.42;;
74914;SDS011;63475;45.140;-75.616;2022-09-30T01:52:43;8.23;;;2.38;;
74914;SDS011;63475;45.140;-75.616;2022-09-30T01:54:02;6.03;;;1.95;;
74914;SDS011;63475;45.140;-75.616;2022-09-30T01:56:41;5.80;;;1.90;;
74914;SDS011;63475;45.140;-75.616;2022-09-30T01:57:51;7.65;;;2.70;;
74914;SDS011;63475;45.140;-75.616;2022-09-30T01:59:50;5.15;;;2.00;;
74914;SDS011;63475;45.140;-75.616;2022-09-30T02:00:27;5.18;;;1.73;;
74914;SDS011;63475;45.140;-75.616;2022-09-30T02:01:29;6.75;;;2.35;;
74914;SDS011;63475;45.140;-75.616;2022-09-30T02:02:38;4.43;;;2.25;;
74914;SDS011;63475;45.140;-75.616;2022-09-30T02:03:48;4.68;;;1.98;;
74914;SDS011;63475;45.140;-75.616;2022-09-30T02:04:58;7.85;;;2.00;;
74914;SDS011;63475;45.140;-75.616;2022-09-30T02:06:09;4.78;;;1.75;;
74914;SDS011;63475;45.140;-75.616;2022-09-30T02:07:17;5.15;;;1.73;;
74914;SDS011;63475;45.140;-75.616;2022-09-30T02:08:27;7.35;;;2.38;;
74914;SDS011;63475;45.140;-75.616;2022-09-30T02:10:00;4.13;;;1.90;;
74914;SDS011;63475;45.140;-75.616;2022-09-30T02:11:13;3.88;;;1.65;;
74914;SDS011;63475;45.140;-75.616;2022-09-30T02:12:18;6.65;;;1.95;;
74914;SDS011;63475;45.140;-75.616;2022-09-30T02:14:58;3.20;;;0.73;;
74914;SDS011;63475;45.140;-75.616;2022-09-30T02:16:01;3.22;;;1.40;;
74914;SDS011;63475;45.140;-75.616;2022-09-30T02:17:13;4.25;;;1.65;;
74914;SDS011;63475;45.140;-75.616;2022-09-30T02:18:28;4.80;;;2.00;;
74914;SDS011;63475;45.140;-75.616;2022-09-30T02:19:45;5.50;;;2.55;;
74914;SDS011;63475;45.140;-75.616;2022-09-30T02:20:52;4.38;;;1.48;;
74914;SDS011;63475;45.140;-75.616;2022-09-30T02:21:59;4.45;;;1.83;;
74914;SDS011;63475;45.140;-75.616;2022-09-30T02:23:22;5.53;;;2.53;;
74914;SDS011;63475;45.140;-75.616;2022-09-30T02:24:28;3.80;;;0.65;;
74914;SDS011;63475;45.140;-75.616;2022-09-30T02:25:37;4.22;;;1.58;;
74914;SDS011;63475;45.140;-75.616;2022-09-30T02:26:52;4.32;;;1.15;;
74914;SDS011;63475;45.140;-75.616;2022-09-30T02:27:57;4.28;;;1.30;;
74914;SDS011;63475;45.140;-75.616;2022-09-30T02:29:04;4.47;;;1.15;;
74914;SDS011;63475;45.140;-75.616;2022-09-30T02:30:12;3.78;;;1.48;;
74914;SDS011;63475;45.140;-75.616;2022-09-30T02:31:13;2.72;;;1.45;;
74914;SDS011;63475;45.140;-75.616;2022-09-30T02:32:17;4.55;;;1.25;;
74914;SDS011;63475;45.140;-75.616;2022-09-30T02:33:36;3.13;;;1.25;;
74914;SDS011;63475;45.140;-75.616;2022-09-30T02:34:47;3.33;;;1.70;;
74914;SDS011;63475;45.140;-75.616;2022-09-30T02:35:53;4.18;;;1.60;;
74914;SDS011;63475;45.140;-75.616;2022-09-30T02:38:23;9.98;;;1.88;;
74914;SDS011;63475;45.140;-75.616;2022-09-30T02:39:42;5.05;;;2.00;;
74914;SDS011;63475;45.140;-75.616;2022-09-30T02:41:17;3.88;;;2.28;;
74914;SDS011;63475;45.140;-75.616;2022-09-30T02:42:23;5.43;;;2.22;;
74914;SDS011;63475;45.140;-75.616;2022-09-30T02:43:27;5.85;;;2.00;;
74914;SDS011;63475;45.140;-75.616;2022-09-30T02:44:29;5.38;;;1.98;;
74914;SDS011;63475;45.140;-75.616;2022-09-30T02:45:33;5.40;;;2.42;;
74914;SDS011;63475;45.140;-75.616;2022-09-30T02:50:03;4.95;;;1.80;;
74914;SDS011;63475;45.140;-75.616;2022-09-30T02:51:32;6.15;;;1.80;;
74914;SDS011;63475;45.140;-75.616;2022-09-30T02:55:33;5.50;;;2.35;;
74914;SDS011;63475;45.140;-75.616;2022-09-30T02:56:48;5.63;;;1.42;;
74914;SDS011;63475;45.140;-75.616;2022-09-30T02:58:13;4.10;;;2.10;;
74914;SDS011;63475;45.140;-75.616;2022-09-30T02:59:17;4.88;;;1.70;;
74914;SDS011;63475;45.140;-75.616;2022-09-30T03:00:18;5.38;;;1.83;;
74914;SDS011;63475;45.140;-75.616;2022-09-30T03:01:19;5.28;;;2.35;;
74914;SDS011;63475;45.140;-75.616;2022-09-30T03:02:20;4.47;;;2.38;;
74914;SDS011;63475;45.140;-75.616;2022-09-30T03:04:03;4.32;;;1.45;;
74914;SDS011;63475;45.140;-75.616;2022-09-30T03:05:11;4.72;;;1.95;;
74914;SDS011;63475;45.140;-75.616;2022-09-30T03:06:12;4.55;;;1.98;;
74914;SDS011;63475;45.140;-75.616;2022-09-30T03:07:13;4.15;;;1.63;;
74914;SDS011;63475;45.140;-75.616;2022-09-30T03:08:14;5.18;;;1.90;;
74914;SDS011;63475;45.140;-75.616;2022-09-30T03:09:16;5.20;;;1.88;;
74914;SDS011;63475;45.140;-75.616;2022-09-30T03:10:17;4.65;;;2.05;;
74914;SDS011;63475;45.140;-75.616;2022-09-30T03:11:19;4.78;;;1.55;;
74914;SDS011;63475;45.140;-75.616;2022-09-30T03:16:39;4.90;;;2.13;;
74914;SDS011;63475;45.140;-75.616;2022-09-30T03:17:51;4.75;;;1.85;;
74914;SDS011;63475;45.140;-75.616;2022-09-30T03:19:08;4.32;;;1.88;;
74914;SDS011;63475;45.140;-75.616;2022-09-30T03:29:41;5.90;;;2.30;;
74914;SDS011;63475;45.140;-75.616;2022-09-30T03:30:57;5.78;;;2.30;;
74914;SDS011;63475;45.140;-75.616;2022-09-30T03:32:07;4.28;;;1.83;;
74914;SDS011;63475;45.140;-75.616;2022-09-30T03:33:24;6.60;;;2.88;;
74914;SDS011;63475;45.140;-75.616;2022-09-30T03:39:03;4.88;;;1.90;;
74914;SDS011;63475;45.140;-75.616;2022-09-30T03:40:48;4.60;;;1.48;;
74914;SDS011;63475;45.140;-75.616;2022-09-30T03:42:51;5.57;;;1.80;;
74914;SDS011;63475;45.140;-75.616;2022-09-30T03:44:01;4.03;;;2.05;;
74914;SDS011;63475;45.140;-75.616;2022-09-30T03:45:17;4.10;;;1.95;;
74914;SDS011;63475;45.140;-75.616;2022-09-30T03:46:35;4.47;;;2.15;;
74914;SDS011;63475;45.140;-75.616;2022-09-30T03:47:52;4.97;;;2.78;;
74914;SDS011;63475;45.140;-75.616;2022-09-30T03:48:59;4.63;;;2.15;;
74914;SDS011;63475;45.140;-75.616;2022-09-30T03:50:05;6.10;;;2.42;;
74914;SDS011;63475;45.140;-75.616;2022-09-30T03:51:09;5.30;;;2.38;;
74914;SDS011;63475;45.140;-75.616;2022-09-30T03:52:10;5.47;;;2.42;;
74914;SDS011;63475;45.140;-75.616;2022-09-30T03:53:12;5.50;;;2.65;;
74914;SDS011;63475;45.140;-75.616;2022-09-30T03:54:13;7.20;;;2.83;;
74914;SDS011;63475;45.140;-75.616;2022-09-30T03:55:15;5.22;;;2.90;;
74914;SDS011;63475;45.140;-75.616;2022-09-30T03:56:25;7.45;;;2.80;;
74914;SDS011;63475;45.140;-75.616;2022-09-30T03:57:30;7.90;;;2.83;;
74914;SDS011;63475;45.140;-75.616;2022-09-30T03:58:31;6.25;;;3.22;;
74914;SDS011;63475;45.140;-75.616;2022-09-30T03:59:33;6.82;;;2.60;;
74914;SDS011;63475;45.140;-75.616;2022-09-30T04:00:34;5.72;;;2.50;;
74914;SDS011;63475;45.140;-75.616;2022-09-30T04:01:36;7.78;;;3.75;;
74914;SDS011;63475;45.140;-75.616;2022-09-30T04:02:38;6.60;;;3.28;;
74914;SDS011;63475;45.140;-75.616;2022-09-30T04:03:39;6.43;;;3.28;;
74914;SDS011;63475;45.140;-75.616;2022-09-30T04:04:41;7.57;;;3.50;;
74914;SDS011;63475;45.140;-75.616;2022-09-30T04:05:42;6.55;;;3.13;;
74914;SDS011;63475;45.140;-75.616;2022-09-30T04:06:43;11.95;;;3.72;;
74914;SDS011;63475;45.140;-75.616;2022-09-30T04:07:44;8.48;;;3.90;;
74914;SDS011;63475;45.140;-75.616;2022-09-30T04:08:45;8.63;;;3.63;;
74914;SDS011;63475;45.140;-75.616;2022-09-30T04:09:46;9.32;;;3.92;;
74914;SDS011;63475;45.140;-75.616;2022-09-30T04:10:47;10.60;;;4.18;;
74914;SDS011;63475;45.140;-75.616;2022-09-30T04:11:48;8.00;;;3.30;;
74914;SDS011;63475;45.140;-75.616;2022-09-30T04:12:51;9.88;;;4.78;;
74914;SDS011;63475;45.140;-75.616;2022-09-30T04:13:53;11.30;;;3.78;;
74914;SDS011;63475;45.140;-75.616;2022-09-30T04:14:54;7.55;;;4.05;;
74914;SDS011;63475;45.140;-75.616;2022-09-30T04:15:55;9.52;;;4.22;;
74914;SDS011;63475;45.140;-75.616;2022-09-30T04:16:57;7.10;;;3.72;;
74914;SDS011;63475;45.140;-75.616;2022-09-30T04:17:58;8.45;;;3.97;;
74914;SDS011;63475;45.140;-75.616;2022-09-30T04:18:59;9.45;;;4.15;;
74914;SDS011;63475;45.140;-75.616;2022-09-30T04:20:00;10.77;;;5.13;;
74914;SDS011;63475;45.140;-75.616;2022-09-30T04:21:05;9.27;;;4.60;;
74914;SDS011;63475;45.140;-75.616;2022-09-30T04:22:07;8.70;;;4.47;;
74914;SDS011;63475;45.140;-75.616;2022-09-30T04:23:08;9.80;;;5.35;;
74914;SDS011;63475;45.140;-75.616;2022-09-30T04:24:09;13.43;;;6.10;;
74914;SDS011;63475;45.140;-75.616;2022-09-30T04:25:10;9.27;;;4.85;;
74914;SDS011;63475;45.140;-75.616;2022-09-30T04:26:12;9.48;;;5.63;;
74914;SDS011;63475;45.140;-75.616;2022-09-30T04:27:14;10.63;;;5.22;;
74914;SDS011;63475;45.140;-75.616;2022-09-30T04:28:15;10.65;;;5.07;;
74914;SDS011;63475;45.140;-75.616;2022-09-30T04:29:16;11.95;;;5.43;;
74914;SDS011;63475;45.140;-75.616;2022-09-30T04:30:17;8.73;;;4.60;;
74914;SDS011;63475;45.140;-75.616;2022-09-30T04:31:18;9.45;;;4.95;;
74914;SDS011;63475;45.140;-75.616;2022-09-30T04:32:20;10.77;;;5.53;;
74914;SDS011;63475;45.140;-75.616;2022-09-30T04:33:22;11.95;;;3.97;;
74914;SDS011;63475;45.140;-75.616;2022-09-30T04:34:23;10.15;;;4.78;;
74914;SDS011;63475;45.140;-75.616;2022-09-30T04:35:23;9.20;;;4.35;;
74914;SDS011;63475;45.140;-75.616;2022-09-30T04:36:27;7.78;;;4.53;;
74914;SDS011;63475;45.140;-75.616;2022-09-30T04:37:27;9.15;;;4.43;;
74914;SDS011;63475;45.140;-75.616;2022-09-30T04:38:28;10.00;;;5.40;;
74914;SDS011;63475;45.140;-75.616;2022-09-30T04:39:30;9.57;;;4.50;;
74914;SDS011;63475;45.140;-75.616;2022-09-30T04:40:31;9.02;;;4.68;;
74914;SDS011;63475;45.140;-75.616;2022-09-30T04:41:38;8.50;;;4.43;;
74914;SDS011;63475;45.140;-75.616;2022-09-30T04:42:40;8.25;;;4.50;;
74914;SDS011;63475;45.140;-75.616;2022-09-30T04:43:45;8.20;;;3.88;;
74914;SDS011;63475;45.140;-75.616;2022-09-30T04:44:46;9.23;;;5.10;;
74914;SDS011;63475;45.140;-75.616;2022-09-30T04:45:48;7.28;;;4.00;;
74914;SDS011;63475;45.140;-75.616;2022-09-30T04:46:50;7.65;;;2.83;;
74914;SDS011;63475;45.140;-75.616;2022-09-30T04:47:51;7.80;;;3.80;;
74914;SDS011;63475;45.140;-75.616;2022-09-30T04:48:52;8.02;;;3.90;;
74914;SDS011;63475;45.140;-75.616;2022-09-30T04:49:53;9.20;;;4.28;;
74914;SDS011;63475;45.140;-75.616;2022-09-30T04:50:53;8.05;;;4.30;;
74914;SDS011;63475;45.140;-75.616;2022-09-30T04:51:54;7.75;;;3.78;;
74914;SDS011;63475;45.140;-75.616;2022-09-30T04:52:55;7.72;;;3.60;;
74914;SDS011;63475;45.140;-75.616;2022-09-30T04:53:56;7.80;;;3.55;;
74914;SDS011;63475;45.140;-75.616;2022-09-30T04:54:57;8.23;;;3.75;;
74914;SDS011;63475;45.140;-75.616;2022-09-30T04:55:58;8.43;;;3.88;;
74914;SDS011;63475;45.140;-75.616;2022-09-30T04:57:00;8.05;;;3.75;;
74914;SDS011;63475;45.140;-75.616;2022-09-30T04:58:01;7.95;;;3.92;;
74914;SDS011;63475;45.140;-75.616;2022-09-30T04:59:02;7.80;;;3.20;;
74914;SDS011;63475;45.140;-75.616;2022-09-30T05:00:04;9.30;;;4.32;;
74914;SDS011;63475;45.140;-75.616;2022-09-30T05:01:12;8.85;;;4.55;;
74914;SDS011;63475;45.140;-75.616;2022-09-30T05:02:14;8.75;;;4.07;;
74914;SDS011;63475;45.140;-75.616;2022-09-30T05:03:16;10.50;;;4.93;;
74914;SDS011;63475;45.140;-75.616;2022-09-30T05:04:18;7.18;;;3.03;;
74914;SDS011;63475;45.140;-75.616;2022-09-30T05:05:19;7.97;;;4.57;;
74914;SDS011;63475;45.140;-75.616;2022-09-30T05:06:20;7.50;;;3.38;;
74914;SDS011;63475;45.140;-75.616;2022-09-30T05:07:21;8.38;;;4.70;;
74914;SDS011;63475;45.140;-75.616;2022-09-30T05:08:22;7.28;;;2.42;;
74914;SDS011;63475;45.140;-75.616;2022-09-30T05:09:23;7.22;;;3.60;;
74914;SDS011;63475;45.140;-75.616;2022-09-30T05:10:24;8.00;;;3.85;;
74914;SDS011;63475;45.140;-75.616;2022-09-30T05:11:25;9.50;;;3.88;;
74914;SDS011;63475;45.140;-75.616;2022-09-30T05:12:26;9.45;;;5.05;;
74914;SDS011;63475;45.140;-75.616;2022-09-30T05:13:31;7.72;;;4.07;;
74914;SDS011;63475;45.140;-75.616;2022-09-30T05:14:35;6.35;;;2.83;;
74914;SDS011;63475;45.140;-75.616;2022-09-30T05:15:36;7.40;;;3.67;;
74914;SDS011;63475;45.140;-75.616;2022-09-30T05:16:36;9.10;;;4.40;;
74914;SDS011;63475;45.140;-75.616;2022-09-30T05:17:37;8.73;;;4.45;;
74914;SDS011;63475;45.140;-75.616;2022-09-30T05:18:38;8.40;;;4.22;;
74914;SDS011;63475;45.140;-75.616;2022-09-30T05:19:41;10.68;;;4.57;;
74914;SDS011;63475;45.140;-75.616;2022-09-30T05:20:42;8.90;;;5.05;;
74914;SDS011;63475;45.140;-75.616;2022-09-30T05:21:43;9.65;;;4.78;;
74914;SDS011;63475;45.140;-75.616;2022-09-30T05:22:44;9.65;;;4.45;;
74914;SDS011;63475;45.140;-75.616;2022-09-30T05:23:46;8.02;;;5.05;;
74914;SDS011;63475;45.140;-75.616;2022-09-30T05:24:47;8.88;;;4.25;;
74914;SDS011;63475;45.140;-75.616;2022-09-30T05:25:49;9.43;;;4.80;;
74914;SDS011;63475;45.140;-75.616;2022-09-30T05:26:51;8.20;;;4.30;;
74914;SDS011;63475;45.140;-75.616;2022-09-30T05:27:52;8.13;;;4.60;;
74914;SDS011;63475;45.140;-75.616;2022-09-30T05:28:53;9.40;;;4.97;;
74914;SDS011;63475;45.140;-75.616;2022-09-30T05:29:53;10.50;;;5.60;;
74914;SDS011;63475;45.140;-75.616;2022-09-30T05:30:55;7.78;;;4.15;;
74914;SDS011;63475;45.140;-75.616;2022-09-30T05:31:59;7.95;;;3.13;;
74914;SDS011;63475;45.140;-75.616;2022-09-30T05:33:00;9.32;;;4.80;;
74914;SDS011;63475;45.140;-75.616;2022-09-30T05:34:00;8.68;;;4.28;;
74914;SDS011;63475;45.140;-75.616;2022-09-30T05:35:02;7.85;;;3.58;;
74914;SDS011;63475;45.140;-75.616;2022-09-30T05:36:06;9.18;;;4.18;;
74914;SDS011;63475;45.140;-75.616;2022-09-30T05:37:08;9.27;;;5.20;;
74914;SDS011;63475;45.140;-75.616;2022-09-30T05:38:09;9.38;;;5.00;;
74914;SDS011;63475;45.140;-75.616;2022-09-30T05:39:10;8.85;;;4.80;;
74914;SDS011;63475;45.140;-75.616;2022-09-30T05:40:11;8.85;;;3.92;;
74914;SDS011;63475;45.140;-75.616;2022-09-30T05:41:12;7.00;;;3.67;;
74914;SDS011;63475;45.140;-75.616;2022-09-30T05:42:14;9.90;;;4.93;;
74914;SDS011;63475;45.140;-75.616;2022-09-30T05:43:15;8.93;;;3.60;;
74914;SDS011;63475;45.140;-75.616;2022-09-30T05:44:15;10.07;;;5.00;;
74914;SDS011;63475;45.140;-75.616;2022-09-30T05:45:16;9.70;;;4.18;;
74914;SDS011;63475;45.140;-75.616;2022-09-30T05:46:18;9.80;;;4.03;;
74914;SDS011;63475;45.140;-75.616;2022-09-30T05:47:19;7.68;;;4.22;;
74914;SDS011;63475;45.140;-75.616;2022-09-30T05:48:20;8.95;;;4.20;;
74914;SDS011;63475;45.140;-75.616;2022-09-30T05:49:22;8.95;;;3.40;;
74914;SDS011;63475;45.140;-75.616;2022-09-30T05:50:23;7.75;;;4.18;;
74914;SDS011;63475;45.140;-75.616;2022-09-30T05:51:24;8.25;;;4.07;;
74914;SDS011;63475;45.140;-75.616;2022-09-30T05:52:25;8.77;;;4.28;;
74914;SDS011;63475;45.140;-75.616;2022-09-30T05:53:27;8.35;;;3.90;;
74914;SDS011;63475;45.140;-75.616;2022-09-30T05:54:31;7.13;;;3.92;;
74914;SDS011;63475;45.140;-75.616;2022-09-30T05:55:31;7.35;;;2.97;;
74914;SDS011;63475;45.140;-75.616;2022-09-30T05:56:32;7.57;;;4.05;;
74914;SDS011;63475;45.140;-75.616;2022-09-30T05:57:33;7.40;;;2.72;;
74914;SDS011;63475;45.140;-75.616;2022-09-30T05:58:35;7.15;;;2.85;;
74914;SDS011;63475;45.140;-75.616;2022-09-30T05:59:37;8.70;;;3.30;;
74914;SDS011;63475;45.140;-75.616;2022-09-30T06:00:41;8.57;;;3.25;;
74914;SDS011;63475;45.140;-75.616;2022-09-30T06:01:43;6.35;;;2.80;;
74914;SDS011;63475;45.140;-75.616;2022-09-30T06:02:44;7.25;;;3.70;;
74914;SDS011;63475;45.140;-75.616;2022-09-30T06:03:45;9.43;;;4.03;;
74914;SDS011;63475;45.140;-75.616;2022-09-30T06:04:47;8.10;;;3.97;;
74914;SDS011;63475;45.140;-75.616;2022-09-30T06:05:54;8.35;;;3.92;;
74914;SDS011;63475;45.140;-75.616;2022-09-30T06:06:56;8.88;;;4.10;;
74914;SDS011;63475;45.140;-75.616;2022-09-30T06:07:57;10.73;;;4.65;;
74914;SDS011;63475;45.140;-75.616;2022-09-30T06:08:58;8.93;;;3.72;;
74914;SDS011;63475;45.140;-75.616;2022-09-30T06:09:59;7.95;;;3.63;;
74914;SDS011;63475;45.140;-75.616;2022-09-30T06:11:06;8.95;;;5.13;;
74914;SDS011;63475;45.140;-75.616;2022-09-30T06:12:10;10.90;;;5.57;;
74914;SDS011;63475;45.140;-75.616;2022-09-30T06:13:11;11.32;;;5.72;;
74914;SDS011;63475;45.140;-75.616;2022-09-30T06:14:12;13.70;;;6.50;;
74914;SDS011;63475;45.140;-75.616;2022-09-30T06:15:13;10.45;;;5.82;;
74914;SDS011;63475;45.140;-75.616;2022-09-30T06:16:15;12.88;;;6.68;;
74914;SDS011;63475;45.140;-75.616;2022-09-30T06:17:17;16.05;;;8.43;;
74914;SDS011;63475;45.140;-75.616;2022-09-30T06:18:18;12.52;;;7.38;;
74914;SDS011;63475;45.140;-75.616;2022-09-30T06:19:20;13.65;;;8.15;;
74914;SDS011;63475;45.140;-75.616;2022-09-30T06:20:21;17.27;;;8.32;;
74914;SDS011;63475;45.140;-75.616;2022-09-30T06:21:22;13.93;;;8.10;;
74914;SDS011;63475;45.140;-75.616;2022-09-30T06:22:23;14.45;;;6.72;;
74914;SDS011;63475;45.140;-75.616;2022-09-30T06:23:24;17.75;;;9.20;;
74914;SDS011;63475;45.140;-75.616;2022-09-30T06:24:25;14.40;;;9.07;;
74914;SDS011;63475;45.140;-75.616;2022-09-30T06:25:27;14.90;;;8.70;;
74914;SDS011;63475;45.140;-75.616;2022-09-30T06:26:29;18.30;;;9.43;;
74914;SDS011;63475;45.140;-75.616;2022-09-30T06:27:31;17.63;;;8.90;;
74914;SDS011;63475;45.140;-75.616;2022-09-30T06:28:33;16.88;;;9.80;;
74914;SDS011;63475;45.140;-75.616;2022-09-30T06:29:34;14.45;;;9.02;;
74914;SDS011;63475;45.140;-75.616;2022-09-30T06:30:35;16.77;;;9.05;;
74914;SDS011;63475;45.140;-75.616;2022-09-30T06:31:36;15.88;;;10.05;;
74914;SDS011;63475;45.140;-75.616;2022-09-30T06:32:37;13.48;;;8.27;;
74914;SDS011;63475;45.140;-75.616;2022-09-30T06:33:38;15.55;;;8.05;;
74914;SDS011;63475;45.140;-75.616;2022-09-30T06:34:39;17.58;;;9.20;;
74914;SDS011;63475;45.140;-75.616;2022-09-30T06:35:40;17.00;;;8.52;;
74914;SDS011;63475;45.140;-75.616;2022-09-30T06:36:42;16.33;;;9.07;;
74914;SDS011;63475;45.140;-75.616;2022-09-30T06:37:43;15.07;;;8.75;;
74914;SDS011;63475;45.140;-75.616;2022-09-30T06:38:46;15.10;;;8.63;;
74914;SDS011;63475;45.140;-75.616;2022-09-30T06:39:50;14.50;;;8.52;;
74914;SDS011;63475;45.140;-75.616;2022-09-30T06:40:51;14.93;;;7.70;;
74914;SDS011;63475;45.140;-75.616;2022-09-30T06:41:52;13.73;;;8.10;;
74914;SDS011;63475;45.140;-75.616;2022-09-30T06:42:59;14.25;;;7.60;;
74914;SDS011;63475;45.140;-75.616;2022-09-30T06:44:01;11.77;;;7.45;;
74914;SDS011;63475;45.140;-75.616;2022-09-30T06:45:02;11.82;;;5.78;;
74914;SDS011;63475;45.140;-75.616;2022-09-30T06:46:03;13.82;;;7.70;;
74914;SDS011;63475;45.140;-75.616;2022-09-30T06:47:04;11.45;;;6.45;;
74914;SDS011;63475;45.140;-75.616;2022-09-30T06:48:05;10.50;;;6.60;;
74914;SDS011;63475;45.140;-75.616;2022-09-30T06:49:09;11.18;;;6.75;;
74914;SDS011;63475;45.140;-75.616;2022-09-30T06:50:10;9.60;;;5.97;;
74914;SDS011;63475;45.140;-75.616;2022-09-30T06:51:11;10.00;;;4.43;;
74914;SDS011;63475;45.140;-75.616;2022-09-30T06:52:12;8.88;;;5.60;;
74914;SDS011;63475;45.140;-75.616;2022-09-30T06:53:12;9.32;;;5.57;;
74914;SDS011;63475;45.140;-75.616;2022-09-30T06:54:14;9.07;;;4.85;;
74914;SDS011;63475;45.140;-75.616;2022-09-30T06:55:14;9.93;;;5.22;;
74914;SDS011;63475;45.140;-75.616;2022-09-30T06:56:16;7.85;;;4.72;;
74914;SDS011;63475;45.140;-75.616;2022-09-30T06:57:19;7.10;;;5.07;;
74914;SDS011;63475;45.140;-75.616;2022-09-30T06:58:24;7.82;;;4.57;;
74914;SDS011;63475;45.140;-75.616;2022-09-30T06:59:25;8.32;;;4.53;;
74914;SDS011;63475;45.140;-75.616;2022-09-30T07:00:26;9.05;;;4.88;;
74914;SDS011;63475;45.140;-75.616;2022-09-30T07:01:28;9.30;;;5.10;;
74914;SDS011;63475;45.140;-75.616;2022-09-30T07:02:29;8.07;;;4.97;;
74914;SDS011;63475;45.140;-75.616;2022-09-30T07:03:31;9.13;;;4.82;;
74914;SDS011;63475;45.140;-75.616;2022-09-30T07:04:33;8.60;;;4.32;;
74914;SDS011;63475;45.140;-75.616;2022-09-30T07:05:35;8.55;;;4.32;;
74914;SDS011;63475;45.140;-75.616;2022-09-30T07:06:37;10.27;;;4.78;;
74914;SDS011;63475;45.140;-75.616;2022-09-30T07:07:38;8.35;;;4.65;;
74914;SDS011;63475;45.140;-75.616;2022-09-30T07:08:39;8.85;;;4.15;;
74914;SDS011;63475;45.140;-75.616;2022-09-30T07:09:40;7.68;;;3.22;;
74914;SDS011;63475;45.140;-75.616;2022-09-30T07:10:45;8.60;;;5.15;;
74914;SDS011;63475;45.140;-75.616;2022-09-30T07:11:46;9.38;;;4.35;;
74914;SDS011;63475;45.140;-75.616;2022-09-30T07:12:48;7.22;;;3.72;;